Time;durP1;ratioP1;P1;durP2;ratioP2;P2;SDS_P1;SDS_P2;PMS_P1;PMS_P2;Temp;Humidity;BMP_temperature;BMP_pressure;BME280_temperature;BME280_humidity;BME280_pressure;Samples;Min_cycle;Max_cycle;Signal;HPM_P1;HPM_P2
2022/11/07 00:02:22;;;;;;;32.60;15.50;;;;;;;;;;6282556;22;20011;-96
2022/11/07 00:04:48;;;;;;;34.88;18.80;;;;;;;;;;6282780;22;20003;-95
2022/11/07 00:07:14;;;;;;;28.55;15.23;;;;;;;;;;6283084;22;20007;-96
2022/11/07 00:12:44;;;;;;;40.22;19.58;;;;;;;;;;6303266;22;20133;-94
2022/11/07 00:15:10;;;;;;;39.95;19.85;;;;;;;;;;6282991;22;20129;-94
2022/11/07 00:17:36;;;;;;;30.23;18.20;;;;;;;;;;6283542;22;20021;-94
2022/11/07 00:20:03;;;;;;;37.17;16.67;;;;;;;;;;6283073;22;20010;-95
2022/11/07 00:22:29;;;;;;;31.45;19.00;;;;;;;;;;6282743;22;20003;-94
2022/11/07 00:24:55;;;;;;;29.73;17.58;;;;;;;;;;6283230;22;20078;-95
2022/11/07 00:27:33;;;;;;;28.70;16.65;;;;;;;;;;6284456;22;20003;-96
2022/11/07 00:29:59;;;;;;;35.65;19.17;;;;;;;;;;6275305;22;20003;-95
2022/11/07 00:32:25;;;;;;;31.75;18.08;;;;;;;;;;6284001;22;20015;-94
2022/11/07 00:34:52;;;;;;;40.22;21.77;;;;;;;;;;6283064;22;19999;-93
2022/11/07 00:37:18;;;;;;;31.00;18.05;;;;;;;;;;6282381;22;20007;-93
2022/11/07 00:39:44;;;;;;;34.45;18.88;;;;;;;;;;6283193;22;20083;-95
2022/11/07 00:42:10;;;;;;;32.35;17.80;;;;;;;;;;6284018;22;20031;-95
2022/11/07 00:44:36;;;;;;;33.53;17.15;;;;;;;;;;6282580;22;20080;-94
2022/11/07 00:47:02;;;;;;;30.23;17.48;;;;;;;;;;6283156;22;20010;-95
2022/11/07 00:49:28;;;;;;;33.20;18.40;;;;;;;;;;6284036;22;20011;-96
2022/11/07 00:51:54;;;;;;;37.97;19.77;;;;;;;;;;6283015;22;20383;-95
2022/11/07 00:57:07;;;;;;;35.45;17.25;;;;;;;;;;6320212;22;20007;-94
2022/11/07 00:59:37;;;;;;;25.92;16.83;;;;;;;;;;6306776;22;20416;-94
2022/11/07 01:02:03;;;;;;;31.40;17.27;;;;;;;;;;6287093;22;20014;-95
2022/11/07 01:07:14;;;;;;;25.40;14.25;;;;;;;;;;6310020;22;20037;-95
2022/11/07 01:09:44;;;;;;;25.63;14.93;;;;;;;;;;6282210;22;20003;-94
2022/11/07 01:12:10;;;;;;;25.98;14.25;;;;;;;;;;6281849;22;20042;-94
2022/11/07 01:14:36;;;;;;;23.27;14.05;;;;;;;;;;6282272;22;20003;-94
2022/11/07 01:17:02;;;;;;;23.27;14.38;;;;;;;;;;6281978;22;20003;-95
2022/11/07 01:19:28;;;;;;;23.95;13.55;;;;;;;;;;6281904;22;19999;-95
2022/11/07 01:21:55;;;;;;;27.58;14.50;;;;;;;;;;6281947;22;20011;-95
2022/11/07 01:24:21;;;;;;;37.03;18.50;;;;;;;;;;6283125;22;20004;-94
2022/11/07 01:26:47;;;;;;;26.85;14.85;;;;;;;;;;6282126;22;20003;-95
2022/11/07 01:29:14;;;;;;;33.38;17.15;;;;;;;;;;6281995;22;20072;-95
2022/11/07 01:31:40;;;;;;;34.78;18.42;;;;;;;;;;6281767;22;20015;-94
2022/11/07 01:34:06;;;;;;;38.08;22.45;;;;;;;;;;6281905;22;20082;-94
2022/11/07 01:36:33;;;;;;;38.13;20.58;;;;;;;;;;6282132;22;20538;-95
2022/11/07 01:38:59;;;;;;;31.73;16.70;;;;;;;;;;6282451;22;20367;-94
2022/11/07 01:41:27;;;;;;;27.27;16.15;;;;;;;;;;6282018;22;19999;-95
2022/11/07 01:43:53;;;;;;;24.40;13.77;;;;;;;;;;6282092;22;20003;-94
2022/11/07 01:46:21;;;;;;;43.25;21.30;;;;;;;;;;6281735;22;20003;-95
2022/11/07 01:48:51;;;;;;;34.13;18.33;;;;;;;;;;6282813;22;20448;-95
2022/11/07 01:51:18;;;;;;;40.53;23.13;;;;;;;;;;6281911;22;20038;-95
2022/11/07 01:53:44;;;;;;;35.83;20.63;;;;;;;;;;6282090;22;20444;-94
2022/11/07 01:56:14;;;;;;;42.30;23.70;;;;;;;;;;6281803;22;20432;-94
2022/11/07 01:58:40;;;;;;;34.80;20.15;;;;;;;;;;6281749;22;20003;-95
2022/11/07 02:01:07;;;;;;;33.03;18.70;;;;;;;;;;6281907;22;20302;-94
2022/11/07 02:03:33;;;;;;;32.08;17.65;;;;;;;;;;6281936;22;20086;-95
2022/11/07 02:06:02;;;;;;;28.73;17.00;;;;;;;;;;6281670;22;20003;-94
2022/11/07 02:08:29;;;;;;;29.42;17.70;;;;;;;;;;6281912;22;20033;-95
2022/11/07 02:10:58;;;;;;;32.22;17.15;;;;;;;;;;6281445;22;20028;-95
2022/11/07 02:13:29;;;;;;;25.85;15.23;;;;;;;;;;6282037;22;20003;-94
2022/11/07 02:15:55;;;;;;;30.30;18.00;;;;;;;;;;6282180;22;20083;-94
2022/11/07 02:18:22;;;;;;;30.77;18.00;;;;;;;;;;6282272;22;20003;-95
2022/11/07 02:20:49;;;;;;;28.83;15.68;;;;;;;;;;6281774;22;19999;-95
2022/11/07 02:23:23;;;;;;;30.00;17.42;;;;;;;;;;6281749;22;20008;-95
2022/11/07 02:25:49;;;;;;;26.95;16.05;;;;;;;;;;6282467;22;20053;-95
2022/11/07 02:28:16;;;;;;;26.95;16.48;;;;;;;;;;6284161;22;20327;-95
2022/11/07 02:30:42;;;;;;;25.27;13.90;;;;;;;;;;6284705;22;19999;-95
2022/11/07 02:33:20;;;;;;;26.50;15.15;;;;;;;;;;6303002;22;20003;-94
2022/11/07 02:35:47;;;;;;;33.00;17.95;;;;;;;;;;6303639;22;20036;-94
2022/11/07 02:38:19;;;;;;;27.50;15.90;;;;;;;;;;6285582;22;20007;-95
2022/11/07 02:40:49;;;;;;;32.78;18.50;;;;;;;;;;6283444;22;20082;-95
2022/11/07 02:43:16;;;;;;;28.50;15.90;;;;;;;;;;6283417;22;20003;-94
2022/11/07 02:45:44;;;;;;;29.85;16.70;;;;;;;;;;6283681;22;20003;-95
2022/11/07 02:48:10;;;;;;;31.02;16.63;;;;;;;;;;6284079;22;20416;-95
2022/11/07 02:50:36;;;;;;;32.13;17.48;;;;;;;;;;6283712;22;20004;-95
2022/11/07 02:53:02;;;;;;;23.75;13.85;;;;;;;;;;6283585;22;20022;-95
2022/11/07 02:55:28;;;;;;;20.73;13.38;;;;;;;;;;6283295;22;20033;-95
2022/11/07 02:57:55;;;;;;;28.05;14.85;;;;;;;;;;6283350;22;20436;-95
2022/11/07 03:00:21;;;;;;;29.40;15.63;;;;;;;;;;6283351;22;19999;-94
2022/11/07 03:02:47;;;;;;;28.00;16.13;;;;;;;;;;6283055;22;20428;-93
2022/11/07 03:05:15;;;;;;;28.77;16.90;;;;;;;;;;6283378;22;19999;-94
2022/11/07 03:07:44;;;;;;;30.98;16.35;;;;;;;;;;6283416;22;20436;-95
2022/11/07 03:10:11;;;;;;;31.73;16.08;;;;;;;;;;6258109;22;20007;-95
2022/11/07 03:12:37;;;;;;;33.40;16.20;;;;;;;;;;6283395;22;20015;-94
2022/11/07 03:15:04;;;;;;;30.85;16.50;;;;;;;;;;6283429;22;20030;-95
2022/11/07 03:17:30;;;;;;;28.48;15.88;;;;;;;;;;6283635;22;20014;-95
2022/11/07 03:19:57;;;;;;;26.80;14.15;;;;;;;;;;6283053;22;20053;-94
2022/11/07 03:22:23;;;;;;;27.08;14.85;;;;;;;;;;6283185;22;20009;-95
2022/11/07 03:24:49;;;;;;;28.67;16.85;;;;;;;;;;6283646;22;20351;-94
2022/11/07 03:27:15;;;;;;;36.80;18.58;;;;;;;;;;6282951;22;20007;-94
2022/11/07 03:29:41;;;;;;;27.65;15.75;;;;;;;;;;6282948;22;20034;-93
2022/11/07 03:32:08;;;;;;;42.65;20.85;;;;;;;;;;6284148;22;20444;-94
2022/11/07 03:34:34;;;;;;;28.40;16.60;;;;;;;;;;6283256;22;20379;-95
2022/11/07 03:37:00;;;;;;;28.65;14.73;;;;;;;;;;6282995;22;20010;-95
2022/11/07 03:39:26;;;;;;;30.75;16.90;;;;;;;;;;6283447;22;20003;-94
2022/11/07 03:44:57;;;;;;;55.10;29.70;;;;;;;;;;6309941;22;20387;-94
2022/11/07 03:47:23;;;;;;;47.20;25.75;;;;;;;;;;6282686;22;19999;-95
2022/11/07 03:49:51;;;;;;;47.50;25.88;;;;;;;;;;6282694;22;20348;-95
2022/11/07 03:52:17;;;;;;;44.67;24.77;;;;;;;;;;6283011;22;20355;-94
2022/11/07 03:54:43;;;;;;;44.45;22.55;;;;;;;;;;6283213;22;19999;-95
2022/11/07 03:57:09;;;;;;;40.78;24.60;;;;;;;;;;6283148;22;20007;-94
2022/11/07 03:59:35;;;;;;;43.95;25.15;;;;;;;;;;6282897;22;20002;-94
2022/11/07 04:02:01;;;;;;;39.25;22.13;;;;;;;;;;6283663;22;20313;-96
2022/11/07 04:04:28;;;;;;;36.33;20.40;;;;;;;;;;6283288;22;19999;-94
2022/11/07 04:06:55;;;;;;;31.40;19.50;;;;;;;;;;6287403;22;20022;-94
2022/11/07 04:09:21;;;;;;;40.67;22.40;;;;;;;;;;6309814;22;20294;-95
2022/11/07 04:17:20;;;;;;;30.52;17.98;;;;;;;;;;6309806;22;20343;-96
2022/11/07 04:19:54;;;;;;;32.10;17.83;;;;;;;;;;6283136;22;20027;-96
2022/11/07 04:22:21;;;;;;;34.25;18.40;;;;;;;;;;6282783;22;20079;-96
2022/11/07 04:24:48;;;;;;;30.50;18.30;;;;;;;;;;6283296;22;20037;-95
2022/11/07 04:30:17;;;;;;;30.85;17.92;;;;;;;;;;6310053;22;20078;-94
2022/11/07 04:32:47;;;;;;;28.45;16.17;;;;;;;;;;6282406;22;20448;-94
2022/11/07 04:35:13;;;;;;;31.65;16.27;;;;;;;;;;6283014;22;20003;-96
2022/11/07 04:37:40;;;;;;;25.48;14.35;;;;;;;;;;6282447;22;20089;-96
2022/11/07 04:40:07;;;;;;;29.60;16.30;;;;;;;;;;6282594;22;20053;-96
2022/11/07 04:42:33;;;;;;;35.25;19.92;;;;;;;;;;6283346;22;20007;-96
2022/11/07 04:44:59;;;;;;;24.88;14.98;;;;;;;;;;6283262;22;19999;-95
2022/11/07 04:47:25;;;;;;;25.45;14.85;;;;;;;;;;6283417;22;20003;-95
2022/11/07 04:49:51;;;;;;;28.55;16.85;;;;;;;;;;6282860;22;20007;-95
2022/11/07 04:52:17;;;;;;;26.80;15.32;;;;;;;;;;6282840;22;20086;-95
2022/11/07 04:54:44;;;;;;;26.92;15.43;;;;;;;;;;6282825;22;20004;-95
2022/11/07 04:57:10;;;;;;;29.92;17.80;;;;;;;;;;6282820;22;20003;-96
2022/11/07 04:59:36;;;;;;;24.80;15.63;;;;;;;;;;6282679;22;19999;-96
2022/11/07 05:02:02;;;;;;;23.58;13.73;;;;;;;;;;6282992;22;20339;-95
2022/11/07 05:04:28;;;;;;;29.67;14.60;;;;;;;;;;6283468;22;19999;-96
2022/11/07 05:06:55;;;;;;;24.98;14.35;;;;;;;;;;6282657;22;20057;-95
2022/11/07 05:09:21;;;;;;;22.70;14.32;;;;;;;;;;6282257;22;20023;-96
2022/11/07 05:11:47;;;;;;;21.50;13.63;;;;;;;;;;6283199;22;20011;-95
2022/11/07 05:14:14;;;;;;;24.17;13.60;;;;;;;;;;6282537;22;20003;-96
2022/11/07 05:16:41;;;;;;;22.08;13.35;;;;;;;;;;6283073;22;20004;-94
2022/11/07 05:19:11;;;;;;;30.98;18.13;;;;;;;;;;6282534;22;20014;-96
2022/11/07 05:21:37;;;;;;;30.15;16.98;;;;;;;;;;6282589;22;20050;-96
2022/11/07 05:24:04;;;;;;;24.35;15.35;;;;;;;;;;6282550;22;20007;-96
2022/11/07 05:26:30;;;;;;;24.05;14.38;;;;;;;;;;6282365;22;20031;-96
2022/11/07 05:28:56;;;;;;;26.25;14.93;;;;;;;;;;6282259;22;20007;-95
2022/11/07 05:31:22;;;;;;;25.50;15.32;;;;;;;;;;6282444;22;20523;-96
2022/11/07 05:33:48;;;;;;;24.92;14.98;;;;;;;;;;6284218;22;20065;-96
2022/11/07 05:36:15;;;;;;;24.05;15.40;;;;;;;;;;6282463;22;20003;-95
2022/11/07 05:38:42;;;;;;;20.63;14.18;;;;;;;;;;6282876;22;20443;-96
2022/11/07 05:41:09;;;;;;;25.27;14.25;;;;;;;;;;6283478;22;20057;-95
2022/11/07 05:43:37;;;;;;;24.63;15.70;;;;;;;;;;6309932;22;20078;-94
2022/11/07 05:46:03;;;;;;;25.33;15.13;;;;;;;;;;6282787;22;20003;-96
2022/11/07 05:48:29;;;;;;;26.60;15.70;;;;;;;;;;6282859;22;20014;-93
2022/11/07 05:50:56;;;;;;;25.20;14.32;;;;;;;;;;6281483;22;20003;-92
2022/11/07 05:53:23;;;;;;;23.65;14.60;;;;;;;;;;6282046;22;20050;-91
2022/11/07 05:55:49;;;;;;;23.63;14.00;;;;;;;;;;6281558;22;20068;-92
2022/11/07 05:58:15;;;;;;;25.70;15.73;;;;;;;;;;6281484;22;20091;-95
2022/11/07 06:00:41;;;;;;;31.08;16.00;;;;;;;;;;6281834;22;20015;-95
2022/11/07 06:03:08;;;;;;;22.85;14.88;;;;;;;;;;6281535;22;20008;-92
2022/11/07 11:25:47;;;;;;;8.55;5.00;;;;;;;;;;6311816;22;20056;-96
2022/11/07 11:57:17;;;;;;;6.25;4.28;;;;;;;;;;6130080;23;20018;-96
2022/11/07 12:02:35;;;;;;;10.07;6.35;;;;;;;;;;6176549;23;20005;-93
2022/11/07 12:05:01;;;;;;;8.05;4.80;;;;;;;;;;6162705;23;20005;-93
2022/11/07 12:07:30;;;;;;;10.45;8.00;;;;;;;;;;6170247;22;20015;-93
2022/11/07 12:10:02;;;;;;;9.55;7.03;;;;;;;;;;6283362;22;19995;-92
2022/11/07 12:18:40;;;;;;;9.98;7.28;;;;;;;;;;6223950;23;19906;-96
2022/11/07 12:32:53;;;;;;;11.55;8.57;;;;;;;;;;6247053;23;20027;-96
2022/11/07 12:35:31;;;;;;;10.52;7.55;;;;;;;;;;6268426;22;20042;-95
2022/11/07 12:38:05;;;;;;;9.30;7.00;;;;;;;;;;6284701;22;20026;-95
2022/11/07 12:41:04;;;;;;;10.85;7.22;;;;;;;;;;6283641;22;20084;-94
2022/11/07 12:43:53;;;;;;;8.02;6.38;;;;;;;;;;6218578;22;20003;-94
2022/11/07 12:46:49;;;;;;;10.15;6.22;;;;;;;;;;6285090;22;20086;-95
2022/11/07 12:49:34;;;;;;;26.30;16.05;;;;;;;;;;6306707;22;20026;-95
2022/11/07 12:52:13;;;;;;;25.65;14.63;;;;;;;;;;6283548;22;20007;-94
2022/11/07 13:01:23;;;;;;;8.38;5.57;;;;;;;;;;6218698;23;20106;-95
2022/11/07 13:07:19;;;;;;;18.02;12.88;;;;;;;;;;6126535;23;20037;-95
2022/11/07 13:10:25;;;;;;;8.70;6.22;;;;;;;;;;6254815;22;20003;-96
2022/11/07 15:25:44;;;;;;;47.13;26.63;;;;;;;;;;6304889;22;20232;-86
2022/11/07 15:28:20;;;;;;;33.95;19.73;;;;;;;;;;6282885;22;20003;-86
2022/11/07 15:30:47;;;;;;;28.92;18.52;;;;;;;;;;6282302;22;20093;-88
2022/11/07 15:33:15;;;;;;;26.90;15.82;;;;;;;;;;6288808;22;20015;-92
2022/11/07 15:35:41;;;;;;;22.83;14.02;;;;;;;;;;6290026;22;20324;-86
2022/11/07 15:38:14;;;;;;;15.43;9.15;;;;;;;;;;6317830;22;20010;-87
2022/11/07 15:40:42;;;;;;;22.45;12.73;;;;;;;;;;6283198;22;20412;-87
2022/11/07 15:43:29;;;;;;;18.77;11.45;;;;;;;;;;6308190;22;19999;-90
2022/11/07 15:49:32;;;;;;;24.73;15.13;;;;;;;;;;6279165;22;20041;-95
2022/11/07 15:51:59;;;;;;;25.75;14.55;;;;;;;;;;6286766;22;20003;-95
2022/11/07 15:54:25;;;;;;;27.45;15.63;;;;;;;;;;6283691;22;20007;-94
2022/11/07 15:56:53;;;;;;;30.88;17.13;;;;;;;;;;6282644;22;20472;-90
2022/11/07 15:59:20;;;;;;;21.73;14.60;;;;;;;;;;6282344;22;20057;-90
2022/11/07 16:01:50;;;;;;;16.55;11.40;;;;;;;;;;6283265;22;20437;-93
2022/11/07 16:04:17;;;;;;;45.88;23.15;;;;;;;;;;6283960;22;20023;-93
2022/11/07 16:06:43;;;;;;;51.22;26.52;;;;;;;;;;6285475;22;20460;-90
2022/11/07 16:09:17;;;;;;;81.18;37.83;;;;;;;;;;6283689;22;20014;-94
2022/11/07 16:11:44;;;;;;;100.35;51.95;;;;;;;;;;6282835;22;20003;-92
2022/11/07 16:14:17;;;;;;;94.95;46.22;;;;;;;;;;6282407;22;20432;-88
2022/11/07 16:16:44;;;;;;;77.78;40.38;;;;;;;;;;6282343;22;20003;-86
2022/11/07 16:19:18;;;;;;;90.22;43.28;;;;;;;;;;6282286;22;20033;-88
2022/11/07 16:21:45;;;;;;;;;;;;;;;;;;6282859;22;20014;-93
2022/11/07 16:24:18;;;;;;;65.03;31.35;;;;;;;;;;6281602;22;19911;-92
2022/11/07 16:26:47;;;;;;;65.70;31.02;;;;;;;;;;6288534;22;20057;-90
2022/11/07 16:29:30;;;;;;;97.50;42.92;;;;;;;;;;6282451;22;20008;-90
2022/11/07 16:31:56;;;;;;;99.57;43.55;;;;;;;;;;6277829;22;20007;-94
2022/11/07 16:34:22;;;;;;;97.43;49.80;;;;;;;;;;6277497;22;20012;-93
2022/11/07 16:36:48;;;;;;;145.90;64.45;;;;;;;;;;6277636;22;20086;-89
2022/11/07 16:39:20;;;;;;;75.20;39.65;;;;;;;;;;6276894;22;20039;-91
2022/11/07 16:41:49;;;;;;;100.05;49.58;;;;;;;;;;6281211;22;20090;-95
2022/11/07 16:44:15;;;;;;;88.05;43.97;;;;;;;;;;6278551;22;20010;-89
2022/11/07 16:46:42;;;;;;;90.38;42.45;;;;;;;;;;6277517;22;20004;-91
2022/11/07 16:49:33;;;;;;;82.70;39.53;;;;;;;;;;6283694;22;20000;-96
2022/11/07 16:52:02;;;;;;;83.10;38.65;;;;;;;;;;6276759;22;20069;-96
2022/11/07 16:54:49;;;;;;;63.03;31.02;;;;;;;;;;6271810;22;20015;-96
2022/11/07 16:57:17;;;;;;;87.93;46.03;;;;;;;;;;6285610;22;20003;-94
2022/11/07 16:59:44;;;;;;;63.88;33.55;;;;;;;;;;6280034;22;20007;-88
2022/11/07 17:02:18;;;;;;;59.10;31.48;;;;;;;;;;6284803;22;20007;-96
2022/11/07 17:04:44;;;;;;;45.65;24.98;;;;;;;;;;6284694;22;20003;-90
2022/11/07 17:07:11;;;;;;;40.22;20.95;;;;;;;;;;6284634;22;20019;-96
2022/11/07 17:09:40;;;;;;;35.22;19.63;;;;;;;;;;6281910;22;20012;-89
2022/11/07 17:12:11;;;;;;;41.85;22.52;;;;;;;;;;6286850;22;20011;-95
2022/11/07 17:14:38;;;;;;;39.33;20.13;;;;;;;;;;6287378;22;20012;-88
2022/11/07 17:17:04;;;;;;;45.42;23.65;;;;;;;;;;6278438;22;20578;-89
2022/11/07 17:19:34;;;;;;;42.35;23.17;;;;;;;;;;6278997;22;20020;-94
2022/11/07 17:22:01;;;;;;;43.17;22.17;;;;;;;;;;6280016;22;20003;-88
2022/11/07 17:24:29;;;;;;;44.20;25.08;;;;;;;;;;6278648;22;20000;-89
2022/11/07 17:26:55;;;;;;;56.25;31.05;;;;;;;;;;6281651;22;20010;-90
2022/11/07 17:29:21;;;;;;;46.13;26.10;;;;;;;;;;6287730;22;20014;-90
2022/11/07 17:31:56;;;;;;;43.80;25.33;;;;;;;;;;6280063;22;20019;-90
2022/11/07 17:34:22;;;;;;;37.35;21.45;;;;;;;;;;6283517;22;20007;-89
2022/11/07 17:37:26;;;;;;;41.97;24.65;;;;;;;;;;6298603;22;20007;-95
2022/11/07 17:39:54;;;;;;;75.32;37.45;;;;;;;;;;6289438;22;20011;-92
2022/11/07 17:42:20;;;;;;;64.93;32.80;;;;;;;;;;6291085;22;20003;-94
2022/11/07 17:44:46;;;;;;;69.50;33.00;;;;;;;;;;6288919;22;20009;-91
2022/11/07 17:47:30;;;;;;;42.35;23.88;;;;;;;;;;6287505;22;20006;-91
2022/11/07 17:50:02;;;;;;;45.92;24.15;;;;;;;;;;6313554;22;20451;-93
2022/11/07 17:52:29;;;;;;;54.63;27.92;;;;;;;;;;6286262;22;20011;-92
2022/11/07 17:55:04;;;;;;;58.70;30.77;;;;;;;;;;6286764;22;20056;-92
2022/11/07 17:57:35;;;;;;;54.63;30.30;;;;;;;;;;6283855;22;20013;-92
2022/11/07 18:00:03;;;;;;;49.08;28.35;;;;;;;;;;6284490;22;19999;-89
2022/11/07 18:02:32;;;;;;;48.15;27.35;;;;;;;;;;6287917;22;20037;-91
2022/11/07 18:04:59;;;;;;;46.63;25.63;;;;;;;;;;6315474;22;20004;-92
2022/11/07 18:07:32;;;;;;;45.75;27.15;;;;;;;;;;6295313;22;20003;-92
2022/11/07 18:10:02;;;;;;;43.90;25.33;;;;;;;;;;6320218;22;20023;-92
2022/11/07 18:12:46;;;;;;;44.22;25.63;;;;;;;;;;6293898;22;20022;-94
2022/11/07 18:15:25;;;;;;;44.40;25.55;;;;;;;;;;6290769;22;20082;-90
2022/11/07 18:17:54;;;;;;;40.88;24.02;;;;;;;;;;6287553;22;20014;-90
2022/11/07 18:20:20;;;;;;;43.10;25.30;;;;;;;;;;6286068;22;20011;-93
2022/11/07 18:22:55;;;;;;;41.53;23.30;;;;;;;;;;6288187;22;20008;-96
2022/11/07 18:25:34;;;;;;;;;;;;;;;;;;;;;
2022/11/07 18:28:16;;;;;;;42.22;23.83;;;;;;;;;;6297482;22;20055;-95
2022/11/07 18:30:43;;;;;;;43.35;25.70;;;;;;;;;;6310714;22;20374;-92
2022/11/07 18:33:09;;;;;;;35.97;24.42;;;;;;;;;;6290231;22;20503;-91
2022/11/07 18:38:14;;;;;;;35.13;22.08;;;;;;;;;;6316691;22;20024;-93
2022/11/07 18:40:54;;;;;;;33.05;19.67;;;;;;;;;;6287903;22;20336;-90
2022/11/07 18:43:27;;;;;;;36.00;22.25;;;;;;;;;;6315870;22;19999;-91
2022/11/07 18:45:55;;;;;;;29.95;19.40;;;;;;;;;;6263130;22;20012;-91
2022/11/07 18:48:23;;;;;;;41.72;24.73;;;;;;;;;;6226800;23;20024;-90
2022/11/07 18:53:41;;;;;;;55.67;35.38;;;;;;;;;;6308967;22;20023;-89
2022/11/07 18:56:26;;;;;;;46.35;26.33;;;;;;;;;;6286349;22;20090;-90
2022/11/07 18:58:52;;;;;;;37.42;23.73;;;;;;;;;;6289580;22;20003;-89
2022/11/07 19:01:37;;;;;;;37.13;22.52;;;;;;;;;;6272196;22;19987;-88
2022/11/07 19:04:09;;;;;;;35.05;22.63;;;;;;;;;;6286815;22;20006;-89
2022/11/07 19:06:56;;;;;;;36.15;22.48;;;;;;;;;;6224816;23;20009;-90
2022/11/07 19:09:26;;;;;;;47.28;29.15;;;;;;;;;;6278713;22;20056;-89
2022/11/07 19:11:54;;;;;;;47.10;26.88;;;;;;;;;;6289540;22;19991;-89
2022/11/07 19:14:58;;;;;;;43.58;25.50;;;;;;;;;;6294558;22;20031;-90
2022/11/07 19:17:35;;;;;;;38.17;23.50;;;;;;;;;;6304961;22;20505;-90
2022/11/07 19:20:01;;;;;;;49.72;28.42;;;;;;;;;;6293555;22;20007;-92
2022/11/07 19:28:11;;;;;;;42.20;25.33;;;;;;;;;;6243942;22;20057;-92
2022/11/07 19:30:52;;;;;;;52.65;28.15;;;;;;;;;;6284666;22;20083;-93
2022/11/07 19:33:19;;;;;;;46.45;25.45;;;;;;;;;;6296092;22;20046;-95
2022/11/07 19:38:20;;;;;;;42.75;25.85;;;;;;;;;;6320203;22;20059;-92
2022/11/07 19:53:42;;;;;;;35.97;22.05;;;;;;;;;;6314014;22;20066;-90
2022/11/07 19:59:08;;;;;;;44.00;23.25;;;;;;;;;;6231498;23;20020;-90
2022/11/07 20:01:38;;;;;;;45.38;25.20;;;;;;;;;;6193150;23;20024;-88
2022/11/07 20:04:10;;;;;;;42.28;24.42;;;;;;;;;;6256136;22;20014;-88
2022/11/07 20:06:38;;;;;;;49.15;29.90;;;;;;;;;;6286906;22;20003;-90
2022/11/07 20:09:06;;;;;;;77.03;40.97;;;;;;;;;;6288828;22;20007;-90
2022/11/07 20:11:50;;;;;;;91.25;43.33;;;;;;;;;;6293814;22;20004;-96
2022/11/07 20:14:19;;;;;;;74.50;39.03;;;;;;;;;;6289430;22;20389;-93
2022/11/07 20:16:45;;;;;;;122.40;51.33;;;;;;;;;;6292101;22;20451;-90
2022/11/07 20:19:54;;;;;;;91.07;42.70;;;;;;;;;;6319426;22;20059;-95
2022/11/07 20:25:56;;;;;;;98.80;47.22;;;;;;;;;;6329144;22;20018;-96
2022/11/07 20:28:45;;;;;;;86.00;41.67;;;;;;;;;;6288275;22;20052;-90
2022/11/07 20:36:53;;;;;;;67.90;34.03;;;;;;;;;;6319572;22;20049;-90
2022/11/07 20:39:41;;;;;;;64.13;32.63;;;;;;;;;;6289042;22;20010;-96
2022/11/07 20:42:16;;;;;;;54.83;31.48;;;;;;;;;;6287001;22;20004;-95
2022/11/07 20:45:04;;;;;;;63.33;31.88;;;;;;;;;;6297005;22;20256;-89
2022/11/07 20:47:50;;;;;;;57.42;32.50;;;;;;;;;;6289947;22;20000;-95
2022/11/07 20:56:04;;;;;;;74.20;38.00;;;;;;;;;;6234453;22;20022;-88
2022/11/07 20:58:43;;;;;;;73.75;39.80;;;;;;;;;;6281042;22;20029;-87
2022/11/07 21:01:39;;;;;;;74.72;36.03;;;;;;;;;;6323478;22;20017;-94
2022/11/07 21:04:15;;;;;;;107.28;50.08;;;;;;;;;;6256970;22;20003;-91
2022/11/07 21:06:51;;;;;;;70.85;35.05;;;;;;;;;;6287036;22;20027;-92
2022/11/07 21:09:22;;;;;;;56.45;31.98;;;;;;;;;;6285779;22;20077;-91
2022/11/07 21:11:48;;;;;;;49.10;29.30;;;;;;;;;;6284697;22;19999;-90
2022/11/07 21:14:24;;;;;;;60.45;32.00;;;;;;;;;;6286800;22;20007;-91
2022/11/07 21:16:51;;;;;;;59.38;32.15;;;;;;;;;;6284919;22;20026;-92
2022/11/07 21:19:18;;;;;;;61.22;31.35;;;;;;;;;;6284485;22;20004;-93
2022/11/07 21:21:44;;;;;;;52.67;28.20;;;;;;;;;;6283972;22;20011;-92
2022/11/07 21:24:13;;;;;;;46.00;25.85;;;;;;;;;;6286293;22;19999;-92
2022/11/07 21:26:39;;;;;;;46.83;25.92;;;;;;;;;;6286180;22;20007;-92
2022/11/07 21:29:07;;;;;;;51.05;26.08;;;;;;;;;;6285794;22;20004;-92
2022/11/07 21:31:34;;;;;;;48.67;29.23;;;;;;;;;;6284953;22;20003;-94
2022/11/07 21:34:08;;;;;;;49.22;27.05;;;;;;;;;;6284667;22;20007;-93
2022/11/07 21:36:37;;;;;;;55.92;26.17;;;;;;;;;;6284241;22;20005;-92
2022/11/07 21:39:15;;;;;;;55.10;27.50;;;;;;;;;;6287761;22;20011;-93
2022/11/07 21:41:41;;;;;;;46.15;26.38;;;;;;;;;;6289870;22;19991;-92
2022/11/07 21:44:14;;;;;;;33.63;21.17;;;;;;;;;;6289437;22;20082;-92
2022/11/07 21:46:40;;;;;;;30.63;19.85;;;;;;;;;;6285550;22;20027;-92
2022/11/07 21:49:06;;;;;;;37.22;21.98;;;;;;;;;;6286502;22;20378;-92
2022/11/07 21:51:33;;;;;;;32.20;19.17;;;;;;;;;;6286727;22;20009;-92
2022/11/07 21:54:05;;;;;;;28.75;19.10;;;;;;;;;;6290471;22;20015;-92
2022/11/07 21:56:32;;;;;;;32.63;20.48;;;;;;;;;;6289001;22;20429;-92
2022/11/07 21:58:59;;;;;;;42.75;25.60;;;;;;;;;;6285539;22;20495;-93
2022/11/07 22:04:11;;;;;;;30.30;19.35;;;;;;;;;;6315240;22;20029;-92
2022/11/07 22:06:42;;;;;;;38.47;23.23;;;;;;;;;;6288114;22;19999;-92
2022/11/07 22:09:09;;;;;;;34.63;22.73;;;;;;;;;;6288770;22;20079;-92
2022/11/07 22:11:41;;;;;;;31.95;20.15;;;;;;;;;;6287309;22;20014;-93
2022/11/07 22:14:15;;;;;;;42.28;26.67;;;;;;;;;;6286049;22;20007;-92
2022/11/07 22:16:47;;;;;;;42.75;27.33;;;;;;;;;;6285619;22;20029;-92
2022/11/07 22:19:16;;;;;;;36.47;24.35;;;;;;;;;;6291848;22;20030;-93
2022/11/07 22:21:43;;;;;;;31.33;20.88;;;;;;;;;;6285948;22;20030;-92
2022/11/07 22:24:10;;;;;;;37.40;22.15;;;;;;;;;;6285485;22;20003;-92
2022/11/07 22:26:45;;;;;;;29.83;20.60;;;;;;;;;;6289203;22;20013;-91
2022/11/07 22:29:36;;;;;;;42.35;25.38;;;;;;;;;;6292538;22;20010;-92
2022/11/07 22:32:02;;;;;;;37.35;22.33;;;;;;;;;;6289721;22;20091;-92
2022/11/07 22:34:28;;;;;;;46.72;27.92;;;;;;;;;;6290146;22;20015;-93
2022/11/07 22:36:54;;;;;;;43.92;26.08;;;;;;;;;;6288551;22;20487;-92
2022/11/07 22:39:20;;;;;;;43.53;27.30;;;;;;;;;;6287662;22;20003;-92
2022/11/07 22:41:47;;;;;;;41.80;25.85;;;;;;;;;;6285710;22;20002;-91
2022/11/07 22:44:16;;;;;;;40.70;26.50;;;;;;;;;;6314847;22;20014;-92
2022/11/07 22:46:42;;;;;;;43.42;26.52;;;;;;;;;;6289681;22;19983;-92
2022/11/07 22:49:09;;;;;;;41.80;25.50;;;;;;;;;;6287899;22;20043;-92
2022/11/07 22:51:36;;;;;;;44.47;28.20;;;;;;;;;;6290171;22;20003;-92
2022/11/07 22:54:07;;;;;;;41.67;26.23;;;;;;;;;;6286480;22;20011;-92
2022/11/07 22:56:34;;;;;;;55.45;30.83;;;;;;;;;;6291481;22;19995;-93
2022/11/07 22:59:04;;;;;;;56.20;32.28;;;;;;;;;;6285178;22;20007;-92
2022/11/07 23:01:32;;;;;;;58.05;31.85;;;;;;;;;;6285281;22;20007;-92
2022/11/07 23:03:58;;;;;;;51.03;30.13;;;;;;;;;;6284207;22;20004;-91
2022/11/07 23:06:25;;;;;;;55.75;30.85;;;;;;;;;;6281072;22;20003;-92
2022/11/07 23:08:51;;;;;;;47.08;26.88;;;;;;;;;;6284582;22;20003;-93
2022/11/07 23:11:25;;;;;;;49.13;29.73;;;;;;;;;;6271995;22;20463;-92
2022/11/07 23:13:59;;;;;;;50.65;29.65;;;;;;;;;;6287842;22;20002;-91
2022/11/07 23:16:35;;;;;;;49.55;30.83;;;;;;;;;;6282157;22;19999;-93
2022/11/07 23:19:02;;;;;;;47.30;28.85;;;;;;;;;;6285668;22;20512;-92
2022/11/07 23:21:28;;;;;;;48.80;28.23;;;;;;;;;;6285065;22;19988;-92
2022/11/07 23:23:56;;;;;;;48.53;28.85;;;;;;;;;;6287565;22;20006;-92
2022/11/07 23:26:32;;;;;;;46.10;27.42;;;;;;;;;;6286838;22;20011;-91
2022/11/07 23:29:01;;;;;;;45.15;27.85;;;;;;;;;;6286720;22;20023;-92
2022/11/07 23:31:34;;;;;;;48.22;28.08;;;;;;;;;;6282651;22;20008;-92
2022/11/07 23:34:03;;;;;;;46.55;28.85;;;;;;;;;;6283448;22;20011;-92
2022/11/07 23:36:31;;;;;;;40.80;26.58;;;;;;;;;;6288146;22;19984;-92
2022/11/07 23:39:01;;;;;;;50.20;31.45;;;;;;;;;;6283650;22;20015;-92
2022/11/07 23:41:28;;;;;;;43.08;28.50;;;;;;;;;;6286605;22;20023;-92
2022/11/07 23:43:54;;;;;;;41.25;27.73;;;;;;;;;;6287596;22;20439;-92
2022/11/07 23:51:53;;;;;;;46.30;30.33;;;;;;;;;;6314892;22;20131;-93
2022/11/07 23:57:04;;;;;;;50.40;31.40;;;;;;;;;;6301098;22;20529;-92
